Time;durP1;ratioP1;P1;durP2;ratioP2;P2;SDS_P1;SDS_P2;PMS_P1;PMS_P2;Temp;Humidity;BMP_temperature;BMP_pressure;BME280_temperature;BME280_humidity;BME280_pressure;Samples;Min_cycle;Max_cycle;Signal;HPM_P1;HPM_P2
2022/06/30 00:01:32;;;;;;;7.22;6.53;;;21.50;97.90;;;;;;5014711;28;20059;-77
2022/06/30 00:03:58;;;;;;;7.18;6.28;;;21.40;97.80;;;;;;4996795;28;20088;-77
2022/06/30 00:06:24;;;;;;;7.57;5.93;;;21.40;97.90;;;;;;5014175;28;20034;-77
2022/06/30 00:08:50;;;;;;;6.28;5.68;;;21.30;97.90;;;;;;4980365;28;20045;-78
2022/06/30 00:11:15;;;;;;;7.88;6.10;;;21.30;98.00;;;;;;4996907;28;20081;-78
2022/06/30 00:13:42;;;;;;;9.52;5.85;;;21.30;98.00;;;;;;5014391;28;20034;-77
2022/06/30 00:16:09;;;;;;;7.07;5.35;;;21.20;98.00;;;;;;4980148;28;20080;-76
2022/06/30 00:18:35;;;;;;;6.05;5.55;;;21.20;98.10;;;;;;4996758;28;20042;-77
2022/06/30 00:21:01;;;;;;;7.32;6.38;;;21.20;98.10;;;;;;4996643;28;20042;-77
2022/06/30 00:23:29;;;;;;;5.80;5.20;;;21.10;98.00;;;;;;5013880;28;20037;-77
2022/06/30 00:25:55;;;;;;;7.88;6.20;;;21.10;97.90;;;;;;4996065;28;20045;-77
2022/06/30 00:28:21;;;;;;;6.60;5.85;;;21.10;97.90;;;;;;4996625;28;20592;-77
2022/06/30 00:30:51;;;;;;;10.40;5.07;;;21.10;97.70;;;;;;5013944;28;20080;-77
2022/06/30 00:33:18;;;;;;;7.10;5.60;;;21.10;97.30;;;;;;4996576;28;20045;-78
2022/06/30 00:35:44;;;;;;;8.07;5.18;;;21.10;97.30;;;;;;4979725;28;20519;-78
2022/06/30 00:38:13;;;;;;;9.27;4.63;;;21.00;97.20;;;;;;5012933;28;20092;-78
2022/06/30 00:40:41;;;;;;;5.80;4.80;;;21.00;97.00;;;;;;4996081;28;20042;-77
2022/06/30 00:43:10;;;;;;;9.55;4.53;;;20.90;97.00;;;;;;5018669;28;20049;-77
2022/06/30 00:45:43;;;;;;;5.90;4.57;;;20.90;96.80;;;;;;5020526;28;20033;-77
2022/06/30 00:48:10;;;;;;;5.22;4.60;;;20.90;96.60;;;;;;5027642;28;20045;-77
2022/06/30 00:50:36;;;;;;;10.38;5.00;;;20.80;96.60;;;;;;5033214;28;20491;-77
2022/06/30 00:53:06;;;;;;;6.32;4.40;;;20.90;96.70;;;;;;5032994;28;20049;-78
2022/06/30 00:55:33;;;;;;;5.78;4.45;;;20.90;96.30;;;;;;5033142;28;20117;-77
2022/06/30 00:58:04;;;;;;;6.32;4.55;;;20.80;96.40;;;;;;5033204;28;20557;-77
2022/06/30 01:00:38;;;;;;;5.38;4.88;;;20.90;96.40;;;;;;5033038;28;20515;-78
2022/06/30 01:03:05;;;;;;;6.97;5.10;;;20.80;96.40;;;;;;5015620;28;20045;-77
2022/06/30 01:05:31;;;;;;;6.88;4.95;;;20.80;96.60;;;;;;5014849;28;20052;-78
2022/06/30 01:07:57;;;;;;;9.82;5.25;;;20.80;96.70;;;;;;5033164;28;20037;-77
2022/06/30 01:13:07;;;;;;;6.25;4.25;;;20.70;97.10;;;;;;5029206;28;20037;-77
2022/06/30 01:15:33;;;;;;;6.43;4.82;;;20.60;97.20;;;;;;5014774;28;20037;-77
2022/06/30 01:17:58;;;;;;;7.75;4.72;;;20.60;97.10;;;;;;5015071;28;20042;-77
2022/06/30 01:20:27;;;;;;;5.22;4.70;;;20.60;97.00;;;;;;5032827;28;20037;-77
2022/06/30 01:22:52;;;;;;;7.78;4.57;;;20.60;97.00;;;;;;5014958;28;20041;-78
2022/06/30 01:25:18;;;;;;;4.78;4.30;;;20.50;97.10;;;;;;5032480;28;20447;-77
2022/06/30 01:27:43;;;;;;;7.63;4.63;;;20.50;97.20;;;;;;5015161;28;20037;-77
2022/06/30 01:30:10;;;;;;;10.20;4.65;;;20.40;97.10;;;;;;5032465;28;20041;-78
2022/06/30 01:32:36;;;;;;;8.38;4.50;;;20.40;97.10;;;;;;5014960;28;20045;-78
2022/06/30 01:35:02;;;;;;;8.20;5.10;;;20.40;97.20;;;;;;5032285;28;20483;-78
2022/06/30 01:37:46;;;;;;;6.85;4.97;;;20.40;97.20;;;;;;5015073;28;20053;-78
2022/06/30 01:40:11;;;;;;;8.45;5.35;;;20.40;97.40;;;;;;5014624;28;20046;-79
2022/06/30 01:42:37;;;;;;;12.43;5.82;;;20.30;97.60;;;;;;5011050;28;20049;-79
2022/06/30 01:45:03;;;;;;;10.93;5.95;;;20.20;97.80;;;;;;5023674;28;20044;-78
2022/06/30 01:47:29;;;;;;;8.48;4.90;;;20.20;97.90;;;;;;5014792;28;20099;-79
2022/06/30 01:49:54;;;;;;;7.85;5.38;;;20.30;97.90;;;;;;5014104;28;20046;-79
2022/06/30 01:52:20;;;;;;;7.30;5.85;;;20.20;98.10;;;;;;5032134;28;20403;-78
2022/06/30 01:54:45;;;;;;;10.38;6.50;;;20.10;98.20;;;;;;5031963;28;20037;-78
2022/06/30 01:57:11;;;;;;;8.93;6.60;;;20.10;98.30;;;;;;5014444;28;20037;-77
2022/06/30 01:59:37;;;;;;;13.18;8.20;;;20.10;98.40;;;;;;5014189;28;20041;-77
2022/06/30 02:02:02;;;;;;;9.35;7.30;;;20.00;98.50;;;;;;5032130;28;20095;-77
2022/06/30 02:07:13;;;;;;;11.65;8.30;;;20.00;98.90;;;;;;5031881;28;20415;-77
2022/06/30 02:09:38;;;;;;;12.07;7.93;;;20.00;99.00;;;;;;5031866;28;20038;-77
2022/06/30 02:14:49;;;;;;;9.38;7.93;;;19.90;99.30;;;;;;5031617;28;20503;-77
2022/06/30 02:17:14;;;;;;;13.20;7.38;;;19.90;99.50;;;;;;5014112;28;20049;-78
2022/06/30 02:19:40;;;;;;;10.82;6.47;;;19.80;99.50;;;;;;5014372;28;20037;-77
2022/06/30 02:22:05;;;;;;;7.70;6.22;;;19.80;99.40;;;;;;5014272;28;20041;-77
2022/06/30 02:24:31;;;;;;;9.82;6.15;;;19.80;99.50;;;;;;5055042;22;20503;-70
2022/06/30 02:26:56;;;;;;;6.13;5.15;;;19.80;99.40;;;;;;5031149;28;20487;-69
2022/06/30 02:29:22;;;;;;;7.47;5.88;;;19.80;99.40;;;;;;5013827;28;20511;-70
2022/06/30 02:31:47;;;;;;;7.88;5.53;;;19.70;99.50;;;;;;5031208;28;20571;-70
2022/06/30 02:34:13;;;;;;;6.65;5.10;;;19.60;99.80;;;;;;5031512;28;20038;-70
2022/06/30 02:36:39;;;;;;;7.55;6.05;;;19.70;99.80;;;;;;5031438;28;20030;-70
2022/06/30 02:39:04;;;;;;;8.57;5.03;;;19.60;99.90;;;;;;5013783;28;20458;-70
2022/06/30 02:41:30;;;;;;;6.07;5.47;;;19.60;99.90;;;;;;5031759;28;20403;-70
2022/06/30 02:43:58;;;;;;;5.78;5.00;;;19.50;99.90;;;;;;5031600;28;20410;-69
2022/06/30 02:46:24;;;;;;;9.75;5.38;;;19.50;99.90;;;;;;5031294;28;20041;-69
2022/06/30 02:48:49;;;;;;;9.23;5.18;;;19.50;99.90;;;;;;5013932;28;20040;-70
2022/06/30 02:51:15;;;;;;;8.30;5.68;;;19.50;99.90;;;;;;5031504;28;20034;-69
2022/06/30 02:53:40;;;;;;;9.30;5.38;;;19.50;99.90;;;;;;5031280;28;20064;-70
2022/06/30 02:56:06;;;;;;;9.00;5.75;;;19.40;99.90;;;;;;5031256;28;20034;-69
2022/06/30 02:58:31;;;;;;;6.20;5.07;;;19.40;99.90;;;;;;5031558;28;20037;-70
2022/06/30 03:00:57;;;;;;;7.78;5.00;;;19.40;99.90;;;;;;5031440;28;20084;-70
2022/06/30 03:03:23;;;;;;;6.43;5.05;;;19.30;99.90;;;;;;5016706;28;20041;-70
2022/06/30 03:05:48;;;;;;;5.32;4.80;;;19.30;99.90;;;;;;5034873;28;20033;-70
2022/06/30 03:08:14;;;;;;;6.10;5.07;;;19.30;99.90;;;;;;5035070;28;20045;-70
2022/06/30 03:10:40;;;;;;;5.65;5.15;;;19.30;99.90;;;;;;5034879;28;20057;-69
2022/06/30 03:13:05;;;;;;;6.90;5.80;;;19.20;99.90;;;;;;5017162;28;20041;-70
2022/06/30 03:15:31;;;;;;;11.55;9.20;;;19.20;99.90;;;;;;5034647;28;20038;-70
2022/06/30 03:17:56;;;;;;;16.23;10.57;;;19.20;99.90;;;;;;5034951;28;20044;-69
2022/06/30 03:20:23;;;;;;;12.07;8.48;;;19.20;99.90;;;;;;5034885;28;20060;-70
2022/06/30 03:22:48;;;;;;;15.52;8.25;;;19.10;99.90;;;;;;5034518;28;20041;-69
2022/06/30 03:25:14;;;;;;;12.95;8.02;;;19.10;99.90;;;;;;5034431;28;20471;-69
2022/06/30 03:27:39;;;;;;;11.30;7.00;;;19.00;99.90;;;;;;5017217;28;20071;-70
2022/06/30 03:30:05;;;;;;;7.80;6.85;;;19.00;99.90;;;;;;5034805;28;20073;-69
2022/06/30 03:32:31;;;;;;;10.13;6.90;;;19.00;99.90;;;;;;5016815;28;20049;-69
2022/06/30 03:34:57;;;;;;;10.80;6.47;;;19.00;99.90;;;;;;5016729;28;20045;-70
2022/06/30 03:37:23;;;;;;;11.10;5.78;;;19.00;99.90;;;;;;5034552;28;20060;-69
2022/06/30 03:39:48;;;;;;;6.75;5.63;;;19.00;99.90;;;;;;5034449;28;20037;-70
2022/06/30 03:42:14;;;;;;;7.07;5.05;;;18.90;99.90;;;;;;5034601;28;20041;-69
2022/06/30 03:44:40;;;;;;;7.97;5.85;;;18.90;99.90;;;;;;5034536;28;20057;-69
2022/06/30 03:47:05;;;;;;;6.47;5.07;;;18.90;99.90;;;;;;5016138;28;20455;-69
2022/06/30 03:49:31;;;;;;;9.38;5.65;;;18.80;99.90;;;;;;5034274;28;20041;-69
2022/06/30 03:51:57;;;;;;;8.48;6.10;;;18.80;99.90;;;;;;5016536;28;20041;-69
2022/06/30 03:54:22;;;;;;;7.05;6.05;;;18.80;99.90;;;;;;5034111;28;20029;-69
2022/06/30 03:56:48;;;;;;;7.30;5.97;;;18.70;99.90;;;;;;5034131;28;20053;-69
2022/06/30 03:59:14;;;;;;;6.63;5.03;;;18.70;99.90;;;;;;5034267;28;20064;-69
2022/06/30 04:01:40;;;;;;;8.55;5.93;;;18.70;99.90;;;;;;5034153;28;20041;-70
2022/06/30 04:04:05;;;;;;;8.73;5.57;;;18.70;99.90;;;;;;5016293;28;20044;-70
2022/06/30 04:06:31;;;;;;;10.10;5.68;;;18.70;99.90;;;;;;5033759;28;20124;-70
2022/06/30 04:08:57;;;;;;;8.75;5.75;;;18.70;99.90;;;;;;5016027;28;20144;-69
2022/06/30 04:11:22;;;;;;;8.45;5.90;;;18.70;99.90;;;;;;5016206;28;20091;-69
2022/06/30 04:13:48;;;;;;;8.27;6.63;;;18.70;99.90;;;;;;5033745;28;20470;-70
2022/06/30 04:16:14;;;;;;;9.23;5.45;;;18.70;99.90;;;;;;5015938;28;20494;-70
2022/06/30 04:18:39;;;;;;;7.72;5.78;;;18.70;99.90;;;;;;5033857;28;20067;-70
2022/06/30 04:21:05;;;;;;;8.48;6.43;;;18.60;99.90;;;;;;5033817;28;20068;-69
2022/06/30 04:23:30;;;;;;;6.43;5.82;;;18.60;99.90;;;;;;5033459;28;20503;-70
2022/06/30 04:25:56;;;;;;;10.25;7.03;;;18.60;99.90;;;;;;5015867;28;20105;-69
2022/06/30 04:28:22;;;;;;;12.50;7.10;;;18.60;99.90;;;;;;5033815;28;20072;-69
2022/06/30 04:33:31;;;;;;;12.45;7.22;;;18.60;99.90;;;;;;5033534;28;20124;-69
2022/06/30 04:35:57;;;;;;;9.20;6.28;;;18.60;99.90;;;;;;5015377;28;20096;-70
2022/06/30 04:38:22;;;;;;;8.27;6.43;;;18.70;99.90;;;;;;5015747;28;20041;-70
2022/06/30 04:43:32;;;;;;;10.82;6.80;;;18.80;99.90;;;;;;5015464;28;20077;-70
2022/06/30 04:45:58;;;;;;;10.57;8.18;;;18.90;99.90;;;;;;5033016;28;20073;-69
2022/06/30 04:48:24;;;;;;;8.00;7.20;;;18.90;99.90;;;;;;5015719;28;20099;-69
2022/06/30 04:50:49;;;;;;;8.98;8.07;;;19.00;99.90;;;;;;5033379;28;20559;-69
2022/06/30 04:53:15;;;;;;;8.15;6.85;;;19.10;99.90;;;;;;5033001;28;20056;-69
2022/06/30 04:55:40;;;;;;;10.50;7.20;;;19.30;99.90;;;;;;5032880;28;20121;-69
2022/06/30 04:58:06;;;;;;;10.23;7.85;;;19.50;99.90;;;;;;5015278;28;20175;-69
2022/06/30 05:00:32;;;;;;;8.95;6.82;;;19.60;99.90;;;;;;5032882;28;20041;-69
2022/06/30 05:02:58;;;;;;;12.65;7.30;;;19.80;99.90;;;;;;5032824;28;20079;-69
2022/06/30 05:05:24;;;;;;;9.57;6.80;;;20.00;99.90;;;;;;5032749;28;20045;-69
2022/06/30 05:07:49;;;;;;;12.40;7.75;;;20.20;99.90;;;;;;5032992;28;20103;-69
2022/06/30 05:10:15;;;;;;;10.68;9.57;;;20.40;99.80;;;;;;5014999;28;20143;-69
2022/06/30 05:12:40;;;;;;;13.30;9.35;;;20.60;99.40;;;;;;5015434;28;20033;-70
2022/06/30 05:15:06;;;;;;;17.00;10.43;;;20.60;99.20;;;;;;5014973;28;20072;-69
2022/06/30 05:17:35;;;;;;;14.82;10.43;;;20.80;99.00;;;;;;5032808;28;20033;-69
2022/06/30 05:20:02;;;;;;;15.40;10.82;;;20.90;98.90;;;;;;5032777;28;20049;-69
2022/06/30 05:22:28;;;;;;;14.65;12.15;;;21.00;98.90;;;;;;5032534;28;20072;-69
2022/06/30 05:27:38;;;;;;;16.10;11.52;;;21.00;98.20;;;;;;5032497;28;20045;-69
2022/06/30 05:30:04;;;;;;;12.90;10.27;;;21.00;98.00;;;;;;5032241;28;20529;-69
2022/06/30 05:32:30;;;;;;;19.83;11.05;;;21.00;98.10;;;;;;5014893;28;20045;-69
2022/06/30 05:34:55;;;;;;;13.00;9.95;;;21.10;97.80;;;;;;5031992;28;20045;-69
2022/06/30 05:37:21;;;;;;;14.00;9.65;;;21.20;97.60;;;;;;5032103;28;20041;-69
2022/06/30 05:39:46;;;;;;;9.93;8.40;;;21.50;97.50;;;;;;5032260;28;20033;-69
2022/06/30 05:42:12;;;;;;;11.32;7.30;;;21.90;97.10;;;;;;5032251;28;20517;-68
2022/06/30 05:44:37;;;;;;;9.80;7.53;;;22.00;96.40;;;;;;5031978;28;20041;-69
2022/06/30 05:47:03;;;;;;;13.93;6.35;;;22.10;96.30;;;;;;5014186;28;20067;-69
2022/06/30 05:49:29;;;;;;;11.60;6.38;;;22.20;95.70;;;;;;5032112;28;20064;-68
2022/06/30 05:51:54;;;;;;;6.65;5.75;;;22.20;95.20;;;;;;5014454;28;20120;-69
2022/06/30 05:54:20;;;;;;;9.30;5.80;;;22.50;95.10;;;;;;5031943;28;20041;-69
2022/06/30 05:56:46;;;;;;;6.05;5.18;;;22.70;94.70;;;;;;5031764;28;20033;-69
2022/06/30 05:59:12;;;;;;;5.78;4.97;;;23.00;94.40;;;;;;5031785;28;20094;-69
2022/06/30 06:01:38;;;;;;;7.43;5.80;;;23.00;93.80;;;;;;5032116;28;20053;-69
2022/06/30 06:04:04;;;;;;;6.80;4.88;;;23.20;93.70;;;;;;5014258;28;20045;-69
2022/06/30 06:06:29;;;;;;;8.73;5.10;;;23.10;93.60;;;;;;5013725;28;20495;-69
2022/06/30 06:08:55;;;;;;;7.53;4.57;;;23.20;93.10;;;;;;5014227;28;20041;-68
2022/06/30 06:11:21;;;;;;;8.00;4.78;;;23.40;93.10;;;;;;5031692;28;20450;-69
2022/06/30 06:13:46;;;;;;;6.35;4.65;;;23.70;92.70;;;;;;5013774;28;20041;-69
2022/06/30 06:16:12;;;;;;;4.50;4.10;;;23.70;92.40;;;;;;5031378;28;20107;-69
2022/06/30 06:18:37;;;;;;;6.53;4.88;;;23.90;92.40;;;;;;5031875;28;20040;-69
2022/06/30 06:21:03;;;;;;;4.97;4.50;;;23.90;92.30;;;;;;5031703;28;20076;-69
2022/06/30 06:23:29;;;;;;;4.68;4.28;;;24.10;92.30;;;;;;5031404;28;20045;-69
2022/06/30 06:25:54;;;;;;;9.48;4.63;;;24.10;91.70;;;;;;5031380;28;20045;-69
2022/06/30 06:31:04;;;;;;;5.18;4.05;;;24.40;91.10;;;;;;5031531;28;20503;-69
2022/06/30 06:33:29;;;;;;;5.25;4.72;;;24.40;90.90;;;;;;5031412;28;20120;-69
2022/06/30 06:35:56;;;;;;;5.00;4.15;;;24.40;90.40;;;;;;5013591;28;20048;-68
2022/06/30 06:38:22;;;;;;;5.53;3.80;;;24.40;90.30;;;;;;5035100;28;20557;-69
2022/06/30 06:40:47;;;;;;;5.35;3.80;;;24.40;90.10;;;;;;5017867;28;20037;-69
2022/06/30 06:43:13;;;;;;;7.82;5.18;;;24.30;89.20;;;;;;5017706;28;20068;-68
2022/06/30 06:45:38;;;;;;;6.30;5.05;;;24.30;90.10;;;;;;5035420;28;20041;-69
2022/06/30 06:48:04;;;;;;;6.35;4.53;;;24.40;90.20;;;;;;5035660;28;20049;-69
2022/06/30 06:50:30;;;;;;;8.05;4.80;;;24.40;90.20;;;;;;5035387;28;20037;-69
2022/06/30 06:52:56;;;;;;;6.63;3.83;;;24.30;90.20;;;;;;5035356;28;20034;-68
2022/06/30 06:55:21;;;;;;;5.40;4.13;;;24.80;90.40;;;;;;5034953;28;20041;-69
2022/06/30 06:57:47;;;;;;;5.95;4.65;;;25.00;90.30;;;;;;5035205;28;20048;-69
2022/06/30 07:00:13;;;;;;;4.72;3.78;;;25.20;89.70;;;;;;5035430;28;20052;-69
2022/06/30 07:02:40;;;;;;;7.47;4.00;;;25.40;89.20;;;;;;5035135;28;20144;-69
2022/06/30 07:05:06;;;;;;;4.35;3.95;;;25.60;89.40;;;;;;5035051;28;20112;-69
2022/06/30 07:07:32;;;;;;;9.52;4.22;;;25.70;88.80;;;;;;5035293;28;20038;-70
2022/06/30 07:09:58;;;;;;;4.75;3.65;;;25.80;88.80;;;;;;5034884;28;20532;-69
2022/06/30 07:12:23;;;;;;;4.78;4.15;;;26.00;87.90;;;;;;5017466;28;20035;-68
2022/06/30 07:14:50;;;;;;;5.47;4.70;;;25.90;88.00;;;;;;5034908;28;20514;-69
2022/06/30 07:17:15;;;;;;;5.97;4.32;;;26.00;87.70;;;;;;5034986;28;20072;-68
2022/06/30 07:19:42;;;;;;;4.97;4.00;;;25.90;87.50;;;;;;5034835;28;20084;-68
2022/06/30 07:22:08;;;;;;;6.20;4.65;;;26.00;87.90;;;;;;5034794;28;20064;-69
2022/06/30 07:24:33;;;;;;;4.32;3.92;;;26.30;87.80;;;;;;5034418;28;20033;-69
2022/06/30 07:26:59;;;;;;;7.20;4.63;;;26.30;88.20;;;;;;5034658;28;20060;-69
2022/06/30 07:29:26;;;;;;;9.85;4.78;;;26.40;87.60;;;;;;5034735;28;20095;-69
2022/06/30 07:31:52;;;;;;;5.57;4.00;;;26.50;87.00;;;;;;5017099;28;20076;-70
2022/06/30 07:34:18;;;;;;;7.68;4.68;;;26.70;86.60;;;;;;5016943;28;20068;-69
2022/06/30 07:36:44;;;;;;;5.53;5.03;;;26.80;86.80;;;;;;5034301;28;20146;-69
2022/06/30 07:39:09;;;;;;;7.38;4.90;;;27.10;87.00;;;;;;5034111;28;20033;-69
2022/06/30 07:41:35;;;;;;;5.78;4.75;;;26.90;85.10;;;;;;5034387;28;20140;-69
2022/06/30 07:44:01;;;;;;;8.98;5.50;;;27.10;85.00;;;;;;5016472;28;20034;-69
2022/06/30 07:46:27;;;;;;;6.80;5.22;;;27.00;84.90;;;;;;5033961;28;20172;-69
2022/06/30 07:48:53;;;;;;;5.72;5.22;;;26.80;85.00;;;;;;5033510;28;20048;-69
2022/06/30 07:51:20;;;;;;;6.28;5.63;;;27.00;85.40;;;;;;5034110;28;20029;-69
2022/06/30 07:53:46;;;;;;;8.45;5.40;;;27.20;85.60;;;;;;5016024;28;20123;-69
2022/06/30 07:56:12;;;;;;;6.60;5.20;;;27.00;84.10;;;;;;5033767;28;20464;-69
2022/06/30 07:58:37;;;;;;;7.88;4.95;;;27.10;84.90;;;;;;5033769;28;20164;-69
2022/06/30 08:01:03;;;;;;;5.93;5.13;;;27.40;84.40;;;;;;5034133;28;20068;-69
2022/06/30 08:03:29;;;;;;;6.82;5.60;;;27.30;84.00;;;;;;5034025;28;20411;-69
2022/06/30 08:05:55;;;;;;;5.78;5.18;;;27.40;84.70;;;;;;5033690;28;20095;-69
2022/06/30 08:08:20;;;;;;;6.15;5.38;;;27.50;84.30;;;;;;5033910;28;20041;-69
2022/06/30 08:10:46;;;;;;;8.40;5.65;;;27.60;83.80;;;;;;5030688;28;20038;-69
2022/06/30 08:13:12;;;;;;;5.72;5.13;;;27.60;83.90;;;;;;5022184;28;20068;-70
2022/06/30 08:15:38;;;;;;;6.47;5.55;;;27.80;83.20;;;;;;5015808;28;20072;-71
2022/06/30 08:18:04;;;;;;;5.18;4.63;;;27.80;82.70;;;;;;5033830;28;20044;-72
2022/06/30 08:20:30;;;;;;;9.40;5.63;;;27.90;83.20;;;;;;5033772;28;20038;-70
2022/06/30 08:22:56;;;;;;;6.18;5.57;;;28.10;81.80;;;;;;5056194;22;20384;-80
2022/06/30 08:25:21;;;;;;;8.63;5.70;;;28.00;81.30;;;;;;5017983;28;20132;-78
2022/06/30 08:27:47;;;;;;;7.00;6.15;;;28.20;81.80;;;;;;5037094;28;20038;-82
2022/06/30 08:30:12;;;;;;;8.20;6.05;;;28.30;82.30;;;;;;5017251;28;20041;-79
2022/06/30 08:32:38;;;;;;;11.35;7.05;;;28.40;81.20;;;;;;5035077;28;20059;-78
2022/06/30 08:35:04;;;;;;;8.75;6.72;;;28.30;79.70;;;;;;5000747;28;20521;-80
2022/06/30 08:37:30;;;;;;;8.30;7.30;;;28.50;80.10;;;;;;5018697;28;20029;-79
2022/06/30 08:42:41;;;;;;;7.35;6.57;;;28.50;80.50;;;;;;5039451;28;20083;-79
2022/06/30 08:45:13;;;;;;;7.72;6.90;;;28.60;79.30;;;;;;5020609;28;20049;-79
2022/06/30 08:47:40;;;;;;;8.95;6.43;;;28.70;80.00;;;;;;5019594;28;20045;-80
2022/06/30 08:50:10;;;;;;;9.85;7.60;;;28.70;79.20;;;;;;5019512;28;20041;-80
2022/06/30 08:52:51;;;;;;;8.77;7.43;;;28.70;78.30;;;;;;5020850;28;20037;-80
2022/06/30 08:55:18;;;;;;;7.72;6.43;;;28.50;78.90;;;;;;5037213;28;20041;-79
2022/06/30 08:57:47;;;;;;;6.63;5.35;;;28.80;80.00;;;;;;5018783;28;20064;-79
2022/06/30 09:00:15;;;;;;;9.23;5.13;;;29.00;79.30;;;;;;5036706;28;20429;-80
2022/06/30 09:02:41;;;;;;;8.57;5.75;;;29.40;79.80;;;;;;5021660;28;20045;-80
2022/06/30 09:05:07;;;;;;;7.85;6.20;;;29.50;78.20;;;;;;5006681;28;20089;-79
2022/06/30 09:07:34;;;;;;;7.50;5.60;;;29.50;77.20;;;;;;5023265;28;20096;-79
2022/06/30 09:09:59;;;;;;;6.70;6.07;;;29.50;77.80;;;;;;5018796;28;20052;-79
2022/06/30 09:12:27;;;;;;;7.68;5.57;;;29.30;76.10;;;;;;5020172;28;20042;-80
2022/06/30 09:14:52;;;;;;;10.15;7.03;;;29.40;76.80;;;;;;5014580;28;20069;-81
2022/06/30 09:17:20;;;;;;;7.68;6.55;;;28.90;77.20;;;;;;5015617;28;20041;-79
2022/06/30 09:19:51;;;;;;;7.88;7.07;;;29.40;78.20;;;;;;5005965;28;20110;-81
2022/06/30 09:22:18;;;;;;;7.47;6.77;;;29.20;77.20;;;;;;5002151;28;20063;-80
2022/06/30 09:24:43;;;;;;;7.50;6.72;;;29.10;77.40;;;;;;5001391;28;20046;-80
2022/06/30 09:27:19;;;;;;;9.48;6.03;;;29.40;77.50;;;;;;5018498;28;20126;-80
2022/06/30 09:30:09;;;;;;;7.65;6.95;;;29.40;77.30;;;;;;5017623;28;20408;-79
2022/06/30 09:32:53;;;;;;;7.07;6.47;;;29.10;76.50;;;;;;4989206;28;20045;-80
2022/06/30 09:35:28;;;;;;;8.32;7.43;;;29.30;77.00;;;;;;5001116;28;20038;-80
2022/06/30 09:38:05;;;;;;;7.97;6.97;;;29.20;78.00;;;;;;4997784;28;20052;-80
2022/06/30 09:40:34;;;;;;;7.97;7.18;;;29.50;77.20;;;;;;5001429;28;20042;-79
2022/06/30 09:43:01;;;;;;;8.63;7.18;;;29.70;77.80;;;;;;4996055;28;20455;-78
2022/06/30 09:45:36;;;;;;;9.02;7.18;;;29.70;77.50;;;;;;4979139;28;20103;-79
2022/06/30 09:48:02;;;;;;;10.05;7.35;;;29.60;76.80;;;;;;5014213;28;20091;-78
2022/06/30 09:50:28;;;;;;;6.88;6.28;;;29.60;77.20;;;;;;5021938;28;20429;-79
2022/06/30 09:53:12;;;;;;;7.95;7.15;;;29.80;77.20;;;;;;5005602;28;20131;-79
2022/06/30 09:55:42;;;;;;;7.15;6.45;;;30.00;78.30;;;;;;5021575;28;20041;-79
2022/06/30 09:58:07;;;;;;;8.02;7.32;;;29.90;78.10;;;;;;5022096;28;20033;-79
2022/06/30 10:01:03;;;;;;;9.05;7.78;;;29.90;76.40;;;;;;5006081;28;20506;-79
2022/06/30 10:03:29;;;;;;;8.10;7.05;;;29.80;76.20;;;;;;5013578;28;20053;-80
2022/06/30 10:06:09;;;;;;;7.50;6.75;;;29.70;77.50;;;;;;5016941;28;20044;-79
2022/06/30 10:08:35;;;;;;;9.82;7.22;;;29.80;76.10;;;;;;5018534;28;20125;-80
2022/06/30 10:11:02;;;;;;;7.43;6.72;;;29.80;76.60;;;;;;5017241;28;20050;-80
2022/06/30 10:13:28;;;;;;;8.35;7.05;;;29.80;76.60;;;;;;5035685;28;20049;-81
2022/06/30 10:15:55;;;;;;;8.00;6.68;;;29.70;76.10;;;;;;5017045;28;20463;-81
2022/06/30 10:18:26;;;;;;;8.65;6.45;;;29.80;76.10;;;;;;5022257;28;20646;-80
2022/06/30 10:20:53;;;;;;;8.60;7.80;;;30.10;75.00;;;;;;5019787;28;20037;-79
2022/06/30 10:23:20;;;;;;;8.25;7.47;;;30.10;75.40;;;;;;5038680;28;20037;-80
2022/06/30 10:25:54;;;;;;;8.77;7.07;;;29.80;74.60;;;;;;5017298;28;20699;-79
2022/06/30 10:28:21;;;;;;;7.35;6.65;;;29.80;75.90;;;;;;5002052;28;20645;-80
2022/06/30 10:31:02;;;;;;;6.95;6.25;;;29.90;75.90;;;;;;5016632;28;20527;-78
2022/06/30 10:33:48;;;;;;;7.75;7.05;;;30.00;75.50;;;;;;5017184;28;20071;-79
2022/06/30 10:36:25;;;;;;;8.45;6.95;;;30.00;73.30;;;;;;5016260;28;20087;-78
2022/06/30 10:38:54;;;;;;;8.75;6.72;;;30.10;72.70;;;;;;5017742;28;20042;-79
2022/06/30 10:41:24;;;;;;;7.35;6.65;;;30.00;72.70;;;;;;5017584;28;20090;-80
2022/06/30 10:44:04;;;;;;;8.25;6.90;;;30.20;72.80;;;;;;4999966;28;20060;-79
2022/06/30 10:46:35;;;;;;;8.73;7.25;;;30.30;75.40;;;;;;5015719;28;20053;-79
2022/06/30 10:49:12;;;;;;;8.38;7.55;;;30.20;72.70;;;;;;5032651;28;20052;-80
2022/06/30 10:51:38;;;;;;;9.18;8.02;;;30.20;73.30;;;;;;4999392;28;20041;-80
2022/06/30 10:54:06;;;;;;;10.48;8.27;;;30.00;70.70;;;;;;5014745;28;20083;-79
2022/06/30 10:56:49;;;;;;;8.70;7.90;;;30.00;70.50;;;;;;5018746;28;20048;-80
2022/06/30 10:59:16;;;;;;;10.07;8.40;;;30.10;70.70;;;;;;5017368;28;20050;-80
2022/06/30 11:02:08;;;;;;;9.30;8.25;;;30.00;70.80;;;;;;5016154;28;20049;-79
2022/06/30 11:04:45;;;;;;;9.35;8.30;;;29.80;71.40;;;;;;5031885;28;20041;-79
2022/06/30 11:07:12;;;;;;;9.20;7.90;;;29.50;71.10;;;;;;5000490;28;20045;-79
2022/06/30 11:09:43;;;;;;;9.73;8.27;;;29.80;72.80;;;;;;5016209;28;20050;-79
2022/06/30 11:12:13;;;;;;;9.60;8.70;;;29.60;71.40;;;;;;5016205;28;20061;-79
2022/06/30 11:14:51;;;;;;;11.50;10.32;;;29.40;71.10;;;;;;5015680;28;20295;-79
2022/06/30 11:17:19;;;;;;;8.60;7.80;;;29.40;71.80;;;;;;5015184;28;20453;-79
2022/06/30 11:19:46;;;;;;;11.00;8.27;;;29.50;72.50;;;;;;5020817;28;20132;-80
2022/06/30 11:22:18;;;;;;;8.98;8.15;;;29.50;73.10;;;;;;5002958;28;20037;-81
2022/06/30 11:24:48;;;;;;;8.23;7.43;;;29.40;72.60;;;;;;5004416;28;20045;-82
2022/06/30 11:27:21;;;;;;;9.23;8.13;;;29.40;72.90;;;;;;5037711;28;20037;-81
2022/06/30 11:29:58;;;;;;;9.15;8.27;;;29.30;74.80;;;;;;5025571;28;20064;-81
2022/06/30 11:32:25;;;;;;;8.32;7.63;;;29.10;73.00;;;;;;5042396;28;20038;-81
2022/06/30 11:34:51;;;;;;;9.50;8.57;;;28.90;77.20;;;;;;5038895;28;20075;-82
2022/06/30 11:37:24;;;;;;;11.95;7.10;;;28.50;77.80;;;;;;5018645;28;20034;-79
2022/06/30 11:39:57;;;;;;;8.52;7.63;;;28.50;78.10;;;;;;5008669;28;20629;-80
2022/06/30 11:42:23;;;;;;;8.18;7.25;;;28.40;75.40;;;;;;5043228;28;20033;-80
2022/06/30 11:44:49;;;;;;;9.05;8.25;;;28.40;77.50;;;;;;5021268;28;20052;-79
2022/06/30 11:47:18;;;;;;;8.95;8.15;;;28.30;78.00;;;;;;5020255;28;20045;-80
2022/06/30 11:49:46;;;;;;;9.88;8.73;;;28.20;79.40;;;;;;4990704;28;20046;-80
2022/06/30 11:52:20;;;;;;;9.18;8.38;;;28.00;80.30;;;;;;5011887;28;20129;-80
2022/06/30 11:54:51;;;;;;;9.70;8.70;;;27.90;80.70;;;;;;5011256;28;20056;-80
2022/06/30 11:57:18;;;;;;;10.93;8.27;;;27.70;81.70;;;;;;5002937;28;20286;-81
2022/06/30 11:59:51;;;;;;;9.68;8.27;;;27.60;82.10;;;;;;5018278;28;20064;-82
2022/06/30 12:02:17;;;;;;;8.88;7.97;;;27.50;83.50;;;;;;5015190;28;20048;-81
2022/06/30 12:04:43;;;;;;;9.98;8.60;;;27.40;83.80;;;;;;5012709;28;20034;-81
2022/06/30 12:07:14;;;;;;;8.90;7.97;;;27.30;84.80;;;;;;5021654;28;20037;-82
2022/06/30 12:09:42;;;;;;;10.23;8.00;;;27.20;85.20;;;;;;5037784;28;20048;-83
2022/06/30 12:12:08;;;;;;;9.77;8.82;;;27.10;87.30;;;;;;5040409;28;20045;-81
2022/06/30 12:14:37;;;;;;;11.82;8.98;;;27.00;88.10;;;;;;5020110;28;20041;-83
2022/06/30 12:17:07;;;;;;;9.23;8.38;;;27.00;89.60;;;;;;5018202;28;20037;-83
2022/06/30 12:19:33;;;;;;;10.07;9.18;;;27.00;90.50;;;;;;5036866;28;20127;-83
2022/06/30 12:22:00;;;;;;;10.18;8.30;;;27.00;91.10;;;;;;5028156;28;20046;-82
2022/06/30 12:24:26;;;;;;;9.55;8.60;;;26.90;91.30;;;;;;5009000;28;20041;-83
2022/06/30 12:26:55;;;;;;;10.93;9.15;;;26.80;91.60;;;;;;5001263;28;20104;-82
2022/06/30 12:29:22;;;;;;;9.23;8.35;;;26.70;91.70;;;;;;5031378;28;20042;-81
2022/06/30 12:32:04;;;;;;;13.50;9.27;;;26.60;91.70;;;;;;5004539;28;20048;-81
2022/06/30 12:34:31;;;;;;;10.15;8.45;;;26.70;92.20;;;;;;5004235;28;20128;-79
2022/06/30 12:37:02;;;;;;;9.35;8.55;;;26.70;92.90;;;;;;5017726;28;20048;-79
2022/06/30 12:39:30;;;;;;;9.80;8.68;;;26.70;92.70;;;;;;5035147;28;20052;-79
2022/06/30 12:42:06;;;;;;;10.13;9.15;;;26.80;92.60;;;;;;5022119;28;20180;-81
2022/06/30 12:44:36;;;;;;;9.77;8.80;;;26.80;92.90;;;;;;5042961;28;20041;-83
2022/06/30 12:47:07;;;;;;;8.43;7.55;;;26.90;93.60;;;;;;5025073;28;20087;-83
2022/06/30 12:49:42;;;;;;;9.07;8.18;;;27.20;92.90;;;;;;5027020;28;20045;-84
2022/06/30 12:52:18;;;;;;;10.15;8.35;;;27.20;91.60;;;;;;5043260;28;20037;-83
2022/06/30 12:54:56;;;;;;;8.90;8.00;;;27.20;91.30;;;;;;5024337;28;20498;-82
2022/06/30 12:57:24;;;;;;;8.75;7.85;;;27.20;91.70;;;;;;5026033;28;20041;-83
2022/06/30 12:59:56;;;;;;;8.43;7.63;;;27.30;91.10;;;;;;5026029;28;20426;-83
2022/06/30 13:02:42;;;;;;;7.38;6.68;;;27.30;91.10;;;;;;5025255;28;20483;-82
2022/06/30 13:05:14;;;;;;;9.40;6.85;;;27.40;90.40;;;;;;5043736;28;20061;-82
2022/06/30 13:07:40;;;;;;;8.23;7.40;;;27.40;91.70;;;;;;5025271;28;20041;-83
2022/06/30 13:10:07;;;;;;;9.35;7.45;;;27.20;90.00;;;;;;5008762;28;20042;-82